Aviation Digital Data Service (ADDS)

Output produced by METARs form (2149 UTC 01 December 2021)
found at http://aviationweather.gov/metar/data/
 
KCLL 012053Z 20009KT 10SM FEW034 25/15 A3008 RMK AO2 SLP181 T02500150 56023
KCLL 011720Z 0118/0218 21010KT P6SM FEW030 SCT250 
     FM020100 VRB03KT P6SM SCT250 
     FM021000 VRB02KT 4SM BR SCT004 SCT250 
     FM021500 20006KT P6SM SCT250